SBGR/GRU METAR and TAF weather

Enter ICAO airport designator
Station Type Date Time Source
SBGR METAR 2019/02/20 23:00 UTC NOAA

SBGR 202300Z 06006KT 9999 SCT023 23/21 Q1015


Station Type Date Time Source
SBGR Decoded METAR 2019/02/20 23:00 UTC NOAA

Guarulhos Civ / Mil , Brazil (SBGR) 23-26S 046-28W
Feb 20, 2019 - 06:00 PM EST / 2019.02.20 2300 UTC
Wind: from the ENE (060 degrees) at 7 MPH (6 KT):0
Visibility: greater than 7 mile(s):0
Sky conditions: partly cloudy
Temperature: 73 F (23 C)
Dew Point: 69 F (21 C)
Relative Humidity: 88%
Pressure (altimeter): 29.97 in. Hg (1015 hPa)
ob: SBGR 202300Z 06006KT 9999 SCT023 23/21 Q1015
cycle: 23

Station Type Date Time Source
SBGR TAF 2019/02/20 18:33 UTC NOAA

TAF SBGR 201500Z 2018/2124 30010KT 9999 SCT040TX30/2018Z TN20/2108Z PROB40 2018/2022 22010KT 8000 TSRA BKN030 FEW045CB
BECMG 2022/2024 07005KT 8000 NSC PROB30 2108/2111 6000 BKN008
BECMG 2112/2114 9999 BKN025 PROB40 2116/2122 8000 TSRA BKN025 FEW040CB
BECMG 2122/2124 10005KT BKN015
RMK PGH


Example: see airport list